sensor_id;sensor_type;location;lat;lon;timestamp;pressure;altitude;pressure_sealevel;temperature;humidity
3590;BME280;1809;48.470;9.226;2023-03-16T00:01:40;124110.00;;;0.45;100.00
3590;BME280;1809;48.470;9.226;2023-03-16T00:04:05;124443.13;;;0.42;100.00
3590;BME280;1809;48.470;9.226;2023-03-16T00:06:31;124776.28;;;0.39;100.00
3590;BME280;1809;48.470;9.226;2023-03-16T00:08:56;124767.94;;;0.35;100.00
3590;BME280;1809;48.470;9.226;2023-03-16T00:11:26;124411.00;;;0.26;100.00
3590;BME280;1809;48.470;9.226;2023-03-16T00:13:52;125100.00;;;0.31;100.00
3590;BME280;1809;48.470;9.226;2023-03-16T00:16:17;125792.41;;;0.38;100.00
3590;BME280;1809;48.470;9.226;2023-03-16T00:18:43;125783.00;;;0.33;100.00
3590;BME280;1809;48.470;9.226;2023-03-16T00:21:08;126129.81;;;0.37;100.00
3590;BME280;1809;48.470;9.226;2023-03-16T00:23:35;127551.78;;;0.67;100.00
3590;BME280;1809;48.470;9.226;2023-03-16T00:26:06;129004.69;;;1.11;100.00
3590;BME280;1809;48.470;9.226;2023-03-16T00:28:33;128702.00;;;1.29;100.00
3590;BME280;1809;48.470;9.226;2023-03-16T00:31:03;128015.19;;;1.26;100.00
3590;BME280;1809;48.470;9.226;2023-03-16T00:33:29;126982.16;;;1.20;100.00
3590;BME280;1809;48.470;9.226;2023-03-16T00:36:02;126307.41;;;1.22;100.00
3590;BME280;1809;48.470;9.226;2023-03-16T00:38:34;126007.28;;;1.41;100.00
3590;BME280;1809;48.470;9.226;2023-03-16T00:41:05;124679.47;;;1.57;100.00
3590;BME280;1809;48.470;9.226;2023-03-16T00:43:32;122302.22;;;1.58;100.00
3590;BME280;1809;48.470;9.226;2023-03-16T00:46:05;119936.44;;;1.64;100.00
3590;BME280;1809;48.470;9.226;2023-03-16T00:48:35;117561.03;;;1.65;100.00
3590;BME280;1809;48.470;9.226;2023-03-16T00:51:06;115531.13;;;1.68;100.00
3590;BME280;1809;48.470;9.226;2023-03-16T00:53:32;113155.72;;;1.67;100.00
3590;BME280;1809;48.470;9.226;2023-03-16T00:55:59;110786.59;;;1.68;100.00
3590;BME280;1809;48.470;9.226;2023-03-16T00:58:27;108760.19;;;1.71;100.00
3590;BME280;1809;48.470;9.226;2023-03-16T01:00:52;107414.19;;;1.76;100.00
3590;BME280;1809;48.470;9.226;2023-03-16T01:03:18;105379.72;;;1.73;100.00
3590;BME280;1809;48.470;9.226;2023-03-16T01:05:44;104025.28;;;1.72;100.00
3590;BME280;1809;48.470;9.226;2023-03-16T01:08:09;102324.16;;;1.66;100.00
3590;BME280;1809;48.470;9.226;2023-03-16T01:10:35;102336.03;;;1.73;100.00
3590;BME280;1809;48.470;9.226;2023-03-16T01:13:01;101656.88;;;1.71;100.00
3590;BME280;1809;48.470;9.226;2023-03-16T01:15:28;100968.66;;;1.63;100.00
3590;BME280;1809;48.470;9.226;2023-03-16T01:17:53;101661.06;;;1.73;100.00
3590;BME280;1809;48.470;9.226;2023-03-16T01:20:18;101329.94;;;1.77;100.00
3590;BME280;1809;48.470;9.226;2023-03-16T01:22:44;100322.25;;;1.81;100.00
3590;BME280;1809;48.470;9.226;2023-03-16T01:25:11;99304.09;;;1.78;100.00
3590;BME280;1809;48.470;9.226;2023-03-16T01:27:36;98619.84;;;1.72;100.00
3590;BME280;1809;48.470;9.226;2023-03-16T01:30:03;98620.66;;;1.73;100.00
3590;BME280;1809;48.470;9.226;2023-03-16T01:32:29;98275.78;;;1.68;100.00
3590;BME280;1809;48.470;9.226;2023-03-16T01:34:55;98266.84;;;1.62;100.00
3590;BME280;1809;48.470;9.226;2023-03-16T01:37:20;98962.34;;;1.75;100.00
3590;BME280;1809;48.470;9.226;2023-03-16T01:39:47;98290.41;;;1.77;100.00
3590;BME280;1809;48.470;9.226;2023-03-16T01:42:12;97612.09;;;1.75;100.00
3590;BME280;1809;48.470;9.226;2023-03-16T01:44:49;97618.56;;;1.79;100.00
3590;BME280;1809;48.470;9.226;2023-03-16T01:47:15;96599.75;;;1.75;100.00
3590;BME280;1809;48.470;9.226;2023-03-16T01:49:40;95919.47;;;1.72;100.00
3590;BME280;1809;48.470;9.226;2023-03-16T01:52:16;96236.13;;;1.58;100.00
3590;BME280;1809;48.470;9.226;2023-03-16T01:54:47;97935.03;;;1.66;100.00
3590;BME280;1809;48.470;9.226;2023-03-16T01:57:20;98266.00;;;1.62;100.00
3590;BME280;1809;48.470;9.226;2023-03-16T02:02:28;98267.66;;;1.63;100.00
3590;BME280;1809;48.470;9.226;2023-03-16T02:05:04;99292.63;;;1.71;100.00
3590;BME280;1809;48.470;9.226;2023-03-16T02:07:35;98945.97;;;1.65;100.00
3590;BME280;1809;48.470;9.226;2023-03-16T02:10:03;98610.06;;;1.66;100.00
3590;BME280;1809;48.470;9.226;2023-03-16T02:12:30;98623.91;;;1.75;100.00
3590;BME280;1809;48.470;9.226;2023-03-16T02:14:56;98272.53;;;1.66;100.00
3590;BME280;1809;48.470;9.226;2023-03-16T02:17:24;98272.53;;;1.66;100.00
3590;BME280;1809;48.470;9.226;2023-03-16T02:22:44;96943.59;;;1.79;100.00
3590;BME280;1809;48.470;9.226;2023-03-16T02:25:12;96273.50;;;1.82;100.00
3590;BME280;1809;48.470;9.226;2023-03-16T02:27:45;94925.72;;;1.83;100.00
3590;BME280;1809;48.470;9.226;2023-03-16T02:30:17;93572.22;;;1.80;100.00
3590;BME280;1809;48.470;9.226;2023-03-16T02:32:44;92898.78;;;1.81;100.00
3590;BME280;1809;48.470;9.226;2023-03-16T02:35:11;91893.03;;;1.84;100.00
3590;BME280;1809;48.470;9.226;2023-03-16T02:37:37;90546.81;;;1.85;100.00
3590;BME280;1809;48.470;9.226;2023-03-16T02:42:41;88540.84;;;1.95;100.00
3590;BME280;1809;48.470;9.226;2023-03-16T02:45:07;87194.19;;;1.95;100.00
3590;BME280;1809;48.470;9.226;2023-03-16T02:47:36;86185.94;;;1.96;100.00
3590;BME280;1809;48.470;9.226;2023-03-16T02:50:04;84838.81;;;1.95;100.00
3590;BME280;1809;48.470;9.226;2023-03-16T02:52:34;83831.25;;;1.96;100.00
3590;BME280;1809;48.470;9.226;2023-03-16T02:55:00;83494.31;;;1.96;100.00
3590;BME280;1809;48.470;9.226;2023-03-16T02:57:26;83161.53;;;1.98;100.00
3590;BME280;1809;48.470;9.226;2023-03-16T02:59:51;82475.56;;;1.88;100.00
3590;BME280;1809;48.470;9.226;2023-03-16T03:02:16;83145.09;;;1.86;100.00
3590;BME280;1809;48.470;9.226;2023-03-16T03:04:42;83466.13;;;1.75;100.00
3590;BME280;1809;48.470;9.226;2023-03-16T03:07:13;84808.06;;;1.73;100.00
3590;BME280;1809;48.470;9.226;2023-03-16T03:09:39;86137.66;;;1.62;100.00
3590;BME280;1809;48.470;9.226;2023-03-16T03:12:10;88830.66;;;1.63;100.00
3590;BME280;1809;48.470;9.226;2023-03-16T03:14:36;89831.63;;;1.57;100.00
3590;BME280;1809;48.470;9.226;2023-03-16T03:17:05;91516.00;;;1.57;100.00
3590;BME280;1809;48.470;9.226;2023-03-16T03:19:32;92174.47;;;1.47;100.00
3590;BME280;1809;48.470;9.226;2023-03-16T03:21:58;93858.16;;;1.47;100.00
3590;BME280;1809;48.470;9.226;2023-03-16T03:24:24;95198.47;;;1.42;100.00
3590;BME280;1809;48.470;9.226;2023-03-16T03:26:49;96204.28;;;1.38;100.00
3590;BME280;1809;48.470;9.226;2023-03-16T03:29:16;97208.69;;;1.34;100.00
3590;BME280;1809;48.470;9.226;2023-03-16T03:31:41;98912.44;;;1.44;100.00
3590;BME280;1809;48.470;9.226;2023-03-16T03:34:08;98262.78;;;1.60;100.00
3590;BME280;1809;48.470;9.226;2023-03-16T03:36:34;96568.63;;;1.55;100.00
3590;BME280;1809;48.470;9.226;2023-03-16T03:38:59;96238.50;;;1.60;100.00
3590;BME280;1809;48.470;9.226;2023-03-16T03:41:29;95225.22;;;1.59;100.00
3590;BME280;1809;48.470;9.226;2023-03-16T03:43:54;93886.09;;;1.65;100.00
3590;BME280;1809;48.470;9.226;2023-03-16T03:46:19;92881.13;;;1.69;100.00
3590;BME280;1809;48.470;9.226;2023-03-16T03:48:45;90852.22;;;1.64;100.00
3590;BME280;1809;48.470;9.226;2023-03-16T03:51:10;89850.91;;;1.70;100.00
3590;BME280;1809;48.470;9.226;2023-03-16T03:53:35;88499.94;;;1.67;100.00
3590;BME280;1809;48.470;9.226;2023-03-16T03:56:01;88163.38;;;1.67;100.00
3590;BME280;1809;48.470;9.226;2023-03-16T03:58:26;86814.63;;;1.65;100.00
3590;BME280;1809;48.470;9.226;2023-03-16T04:00:51;86473.97;;;1.62;100.00
3590;BME280;1809;48.470;9.226;2023-03-16T04:03:17;86153.28;;;1.73;100.00
3590;BME280;1809;48.470;9.226;2023-03-16T04:05:42;84124.53;;;1.65;100.00
3590;BME280;1809;48.470;9.226;2023-03-16T04:08:07;83455.81;;;1.68;100.00
3590;BME280;1809;48.470;9.226;2023-03-16T04:10:33;82789.16;;;1.72;100.00
3590;BME280;1809;48.470;9.226;2023-03-16T04:12:59;81775.16;;;1.67;100.00
3590;BME280;1809;48.470;9.226;2023-03-16T04:15:25;80767.56;;;1.67;100.00
3590;BME280;1809;48.470;9.226;2023-03-16T04:17:50;79425.91;;;1.68;100.00
3590;BME280;1809;48.470;9.226;2023-03-16T04:20:19;78759.09;;;1.72;100.00
3590;BME280;1809;48.470;9.226;2023-03-16T04:22:45;76737.63;;;1.65;100.00
3590;BME280;1809;48.470;9.226;2023-03-16T04:25:15;76075.00;;;1.72;100.00
3590;BME280;1809;48.470;9.226;2023-03-16T04:27:40;74402.81;;;1.75;100.00
3590;BME280;1809;48.470;9.226;2023-03-16T04:30:09;72391.38;;;1.75;100.00
3590;BME280;1809;48.470;9.226;2023-03-16T04:32:36;71717.84;;;1.72;100.00
3590;BME280;1809;48.470;9.226;2023-03-16T04:35:02;71052.09;;;1.75;100.00
3590;BME280;1809;48.470;9.226;2023-03-16T04:37:27;69708.16;;;1.71;100.00
3590;BME280;1809;48.470;9.226;2023-03-16T04:39:52;69369.44;;;1.68;100.00
3590;BME280;1809;48.470;9.226;2023-03-16T04:42:18;69035.31;;;1.68;100.00
3590;BME280;1809;48.470;9.226;2023-03-16T04:44:43;69034.19;;;1.67;100.00
3590;BME280;1809;48.470;9.226;2023-03-16T04:47:10;68359.88;;;1.62;100.00
3590;BME280;1809;48.470;9.226;2023-03-16T04:49:35;68362.66;;;1.65;100.00
3590;BME280;1809;48.470;9.226;2023-03-16T04:52:01;68364.34;;;1.67;100.00
3590;BME280;1809;48.470;9.226;2023-03-16T04:54:26;67688.56;;;1.60;100.00
3590;BME280;1809;48.470;9.226;2023-03-16T04:56:52;67690.22;;;1.62;100.00
3590;BME280;1809;48.470;9.226;2023-03-16T04:59:17;67692.47;;;1.64;100.00
3590;BME280;1809;48.470;9.226;2023-03-16T05:01:43;67017.97;;;1.59;100.00
3590;BME280;1809;48.470;9.226;2023-03-16T05:04:08;66685.78;;;1.61;100.00
3590;BME280;1809;48.470;9.226;2023-03-16T05:06:34;66012.69;;;1.57;100.00
3590;BME280;1809;48.470;9.226;2023-03-16T05:08:59;66346.50;;;1.56;100.00
3590;BME280;1809;48.470;9.226;2023-03-16T05:11:25;66678.13;;;1.54;100.00
3590;BME280;1809;48.470;9.226;2023-03-16T05:13:50;67684.69;;;1.57;100.00
3590;BME280;1809;48.470;9.226;2023-03-16T05:16:16;67347.47;;;1.54;100.00
3590;BME280;1809;48.470;9.226;2023-03-16T05:18:41;67341.41;;;1.49;100.00
3590;BME280;1809;48.470;9.226;2023-03-16T05:21:06;68015.84;;;1.54;100.00
3590;BME280;1809;48.470;9.226;2023-03-16T05:23:32;68001.91;;;1.41;100.00
3590;BME280;1809;48.470;9.226;2023-03-16T05:25:57;69010.97;;;1.46;100.00
3590;BME280;1809;48.470;9.226;2023-03-16T05:28:24;69344.97;;;1.46;100.00
3590;BME280;1809;48.470;9.226;2023-03-16T05:30:49;69341.56;;;1.43;100.00
3590;BME280;1809;48.470;9.226;2023-03-16T05:33:15;70019.94;;;1.51;100.00
3590;BME280;1809;48.470;9.226;2023-03-16T05:35:41;68686.03;;;1.55;100.00
3590;BME280;1809;48.470;9.226;2023-03-16T05:38:07;67336.97;;;1.45;100.00
3590;BME280;1809;48.470;9.226;2023-03-16T05:40:34;67329.78;;;1.38;100.00
3590;BME280;1809;48.470;9.226;2023-03-16T05:43:01;68669.13;;;1.40;100.00
3590;BME280;1809;48.470;9.226;2023-03-16T05:45:27;68669.66;;;1.40;100.00
3590;BME280;1809;48.470;9.226;2023-03-16T05:47:52;68990.03;;;1.28;100.00
3590;BME280;1809;48.470;9.226;2023-03-16T05:50:17;71348.38;;;1.42;100.00
3590;BME280;1809;48.470;9.226;2023-03-16T05:52:44;72019.13;;;1.43;100.00
3590;BME280;1809;48.470;9.226;2023-03-16T05:55:10;72367.03;;;1.54;100.00
3590;BME280;1809;48.470;9.226;2023-03-16T05:57:36;71693.13;;;1.50;100.00
3590;BME280;1809;48.470;9.226;2023-03-16T06:00:04;70698.06;;;1.58;100.00
3590;BME280;1809;48.470;9.226;2023-03-16T06:02:37;69027.97;;;1.61;100.00
3590;BME280;1809;48.470;9.226;2023-03-16T06:05:03;69376.28;;;1.74;100.00
3590;BME280;1809;48.470;9.226;2023-03-16T06:07:28;64703.78;;;1.84;100.00
3590;BME280;1809;48.470;9.226;2023-03-16T06:09:54;60030.75;;;1.88;100.00
3590;BME280;1809;48.470;9.226;2023-03-16T06:12:19;57030.72;;;1.92;100.00
3590;BME280;1809;48.470;9.226;2023-03-16T06:14:44;55030.47;;;1.93;100.00
3590;BME280;1809;48.470;9.226;2023-03-16T06:17:10;52700.66;;;1.97;100.00
3590;BME280;1809;48.470;9.226;2023-03-16T06:19:35;50696.94;;;1.91;100.00
3590;BME280;1809;48.470;9.226;2023-03-16T06:22:00;51028.31;;;1.89;100.00
3590;BME280;1809;48.470;9.226;2023-03-16T06:24:26;51039.91;;;2.03;100.00
3590;BME280;1809;48.470;9.226;2023-03-16T06:26:51;48713.81;;;2.09;100.00
3590;BME280;1809;48.470;9.226;2023-03-16T06:29:17;44061.06;;;2.16;100.00
3590;BME280;1809;48.470;9.226;2023-03-16T06:31:42;41075.44;;;2.24;100.00
3590;BME280;1809;48.470;9.226;2023-03-16T06:34:08;36430.13;;;2.29;100.00
3590;BME280;1809;48.470;9.226;2023-03-16T06:36:33;30468.13;;;2.39;100.00
3590;BME280;1809;48.470;9.226;2023-03-16T06:38:58;20553.06;;;2.63;100.00
3590;BME280;1809;48.470;9.226;2023-03-16T06:41:24;13302.00;;;3.11;100.00
3590;BME280;1809;48.470;9.226;2023-03-16T06:43:49;-5483.69;;;3.31;100.00
3590;BME280;1809;48.470;9.226;2023-03-16T06:46:14;-16262.69;;;3.36;100.00
3590;BME280;1809;48.470;9.226;2023-03-16T06:48:40;-16255.50;;;3.10;100.00
3590;BME280;1809;48.470;9.226;2023-03-16T06:51:06;-16252.13;;;2.98;100.00
3590;BME280;1809;48.470;9.226;2023-03-16T06:53:32;-16254.53;;;3.07;100.00
3590;BME280;1809;48.470;9.226;2023-03-16T06:55:57;-16252.97;;;3.01;100.00
3590;BME280;1809;48.470;9.226;2023-03-16T06:58:22;-16252.41;;;2.99;100.00
3590;BME280;1809;48.470;9.226;2023-03-16T07:00:48;-16254.38;;;3.06;100.00
3590;BME280;1809;48.470;9.226;2023-03-16T07:03:16;-16256.06;;;3.12;100.00
3590;BME280;1809;48.470;9.226;2023-03-16T07:05:43;-16259.88;;;3.26;100.00
3590;BME280;1809;48.470;9.226;2023-03-16T07:08:09;-16259.72;;;3.25;100.00
3590;BME280;1809;48.470;9.226;2023-03-16T07:10:39;-16263.69;;;3.40;100.00
3590;BME280;1809;48.470;9.226;2023-03-16T07:13:05;-16266.78;;;3.51;100.00
3590;BME280;1809;48.470;9.226;2023-03-16T07:15:30;-16274.09;;;3.77;100.00
3590;BME280;1809;48.470;9.226;2023-03-16T07:18:02;-16281.97;;;4.05;100.00
3590;BME280;1809;48.470;9.226;2023-03-16T07:20:31;-16280.00;;;3.98;100.00
3590;BME280;1809;48.470;9.226;2023-03-16T07:22:57;-16276.63;;;3.86;100.00
3590;BME280;1809;48.470;9.226;2023-03-16T07:25:26;-16282.81;;;4.08;100.00
3590;BME280;1809;48.470;9.226;2023-03-16T07:27:57;-16282.69;;;4.08;100.00
3590;BME280;1809;48.470;9.226;2023-03-16T07:30:23;-16285.34;;;4.17;100.00
3590;BME280;1809;48.470;9.226;2023-03-16T07:32:50;-16286.19;;;4.20;100.00
3590;BME280;1809;48.470;9.226;2023-03-16T07:35:15;-16288.75;;;4.29;100.00
3590;BME280;1809;48.470;9.226;2023-03-16T07:37:41;-16291.56;;;4.40;100.00
3590;BME280;1809;48.470;9.226;2023-03-16T07:40:10;-16295.06;;;4.52;100.00
3590;BME280;1809;48.470;9.226;2023-03-16T07:42:36;-16295.50;;;4.54;100.00
3590;BME280;1809;48.470;9.226;2023-03-16T07:45:03;-16299.72;;;4.69;100.00
3590;BME280;1809;48.470;9.226;2023-03-16T07:47:29;-16301.13;;;4.74;100.00
3590;BME280;1809;48.470;9.226;2023-03-16T07:49:56;-16299.44;;;4.68;100.00
3590;BME280;1809;48.470;9.226;2023-03-16T07:52:22;-16295.78;;;4.55;100.00
3590;BME280;1809;48.470;9.226;2023-03-16T07:54:48;-16300.28;;;4.71;100.00
3590;BME280;1809;48.470;9.226;2023-03-16T07:57:14;-16308.44;;;5.00;100.00
3590;BME280;1809;48.470;9.226;2023-03-16T07:59:40;-16311.69;;;5.12;100.00
3590;BME280;1809;48.470;9.226;2023-03-16T08:02:12;-16312.81;;;5.16;100.00
3590;BME280;1809;48.470;9.226;2023-03-16T08:04:38;-16316.19;;;5.28;100.00
3590;BME280;1809;48.470;9.226;2023-03-16T08:07:10;-16320.25;;;5.42;100.00
3590;BME280;1809;48.470;9.226;2023-03-16T08:09:36;-16320.84;;;5.45;100.00
3590;BME280;1809;48.470;9.226;2023-03-16T08:12:02;-16317.72;;;5.33;100.00
3590;BME280;1809;48.470;9.226;2023-03-16T08:14:29;-16323.22;;;5.53;100.00
3590;BME280;1809;48.470;9.226;2023-03-16T08:16:55;-16324.22;;;5.57;100.00
3590;BME280;1809;48.470;9.226;2023-03-16T08:19:21;-16329.69;;;5.76;100.00
3590;BME280;1809;48.470;9.226;2023-03-16T08:21:46;-16330.69;;;5.80;100.00
3590;BME280;1809;48.470;9.226;2023-03-16T08:24:12;-16335.19;;;5.96;100.00
3590;BME280;1809;48.470;9.226;2023-03-16T08:26:37;-16338.56;;;6.08;100.00
3590;BME280;1809;48.470;9.226;2023-03-16T08:29:03;-16345.88;;;6.34;100.00
3590;BME280;1809;48.470;9.226;2023-03-16T08:31:28;-16348.13;;;6.42;100.00
3590;BME280;1809;48.470;9.226;2023-03-16T08:33:55;-16351.78;;;6.56;100.00
3590;BME280;1809;48.470;9.226;2023-03-16T08:36:21;-16353.19;;;6.61;100.00
3590;BME280;1809;48.470;9.226;2023-03-16T08:38:48;-16357.97;;;6.78;100.00
3590;BME280;1809;48.470;9.226;2023-03-16T08:41:14;-16362.47;;;6.94;100.00
3590;BME280;1809;48.470;9.226;2023-03-16T08:43:41;-16362.63;;;6.94;100.00
3590;BME280;1809;48.470;9.226;2023-03-16T08:46:11;-16360.50;;;6.87;100.00
3590;BME280;1809;48.470;9.226;2023-03-16T08:48:40;-16370.34;;;7.22;100.00
3590;BME280;1809;48.470;9.226;2023-03-16T08:51:07;-16374.72;;;7.38;100.00
3590;BME280;1809;48.470;9.226;2023-03-16T08:53:35;-16368.66;;;7.16;100.00
3590;BME280;1809;48.470;9.226;2023-03-16T08:56:06;-16365.84;;;7.06;100.00
3590;BME280;1809;48.470;9.226;2023-03-16T08:58:33;-16366.13;;;7.07;100.00
3590;BME280;1809;48.470;9.226;2023-03-16T09:01:00;-16373.16;;;7.32;100.00
3590;BME280;1809;48.470;9.226;2023-03-16T09:03:26;-16378.94;;;7.53;100.00
3590;BME280;1809;48.470;9.226;2023-03-16T09:05:53;-16384.56;;;7.73;100.00
3590;BME280;1809;48.470;9.226;2023-03-16T09:08:19;-16383.56;;;7.70;100.00
3590;BME280;1809;48.470;9.226;2023-03-16T09:10:47;-16390.31;;;7.94;100.00
3590;BME280;1809;48.470;9.226;2023-03-16T09:13:13;-16395.38;;;8.12;100.00
3590;BME280;1809;48.470;9.226;2023-03-16T09:15:38;-16395.53;;;8.13;100.00
3590;BME280;1809;48.470;9.226;2023-03-16T09:18:04;-16390.88;;;7.96;100.00
3590;BME280;1809;48.470;9.226;2023-03-16T09:20:30;-16394.41;;;8.08;100.00
3590;BME280;1809;48.470;9.226;2023-03-16T09:22:56;-16394.97;;;8.10;100.00
3590;BME280;1809;48.470;9.226;2023-03-16T09:25:23;-16396.22;;;8.15;100.00
3590;BME280;1809;48.470;9.226;2023-03-16T09:27:50;-16404.94;;;8.46;100.00
3590;BME280;1809;48.470;9.226;2023-03-16T09:30:19;-16409.16;;;8.61;100.00
3590;BME280;1809;48.470;9.226;2023-03-16T09:32:45;-16413.53;;;8.77;100.00
3590;BME280;1809;48.470;9.226;2023-03-16T09:35:15;-16414.22;;;8.80;100.00
3590;BME280;1809;48.470;9.226;2023-03-16T09:37:41;-16420.13;;;9.01;100.00
3590;BME280;1809;48.470;9.226;2023-03-16T09:42:54;-16433.91;;;9.50;100.00
3590;BME280;1809;48.470;9.226;2023-03-16T09:46:02;-16436.00;;;9.58;100.00
3590;BME280;1809;48.470;9.226;2023-03-16T09:48:34;-16432.78;;;9.46;100.00
3590;BME280;1809;48.470;9.226;2023-03-16T09:51:03;-16430.53;;;9.38;100.00
3590;BME280;1809;48.470;9.226;2023-03-16T09:53:38;-16435.31;;;9.55;100.00
3590;BME280;1809;48.470;9.226;2023-03-16T09:56:09;-16435.03;;;9.54;100.00
3590;BME280;1809;48.470;9.226;2023-03-16T09:58:38;-16431.09;;;9.40;100.00
3590;BME280;1809;48.470;9.226;2023-03-16T10:04:04;-16437.25;;;9.62;100.00
3590;BME280;1809;48.470;9.226;2023-03-16T10:06:43;-16439.22;;;9.69;100.00
3590;BME280;1809;48.470;9.226;2023-03-16T10:12:14;-16439.78;;;9.71;100.00
3590;BME280;1809;48.470;9.226;2023-03-16T10:14:48;-16444.28;;;9.88;100.00
3590;BME280;1809;48.470;9.226;2023-03-16T10:17:22;-16451.16;;;10.12;100.00
3590;BME280;1809;48.470;9.226;2023-03-16T10:19:54;-16443.44;;;9.85;100.00
3590;BME280;1809;48.470;9.226;2023-03-16T10:22:32;-16441.47;;;9.78;100.00
3590;BME280;1809;48.470;9.226;2023-03-16T10:25:21;-16449.34;;;10.06;100.00
3590;BME280;1809;48.470;9.226;2023-03-16T10:27:50;-16459.59;;;10.43;100.00
3590;BME280;1809;48.470;9.226;2023-03-16T10:30:42;-16455.38;;;10.27;100.00
3590;BME280;1809;48.470;9.226;2023-03-16T10:33:24;-16460.59;;;10.46;100.00
3590;BME280;1809;48.470;9.226;2023-03-16T10:41:13;-16454.97;;;10.26;100.00
3590;BME280;1809;48.470;9.226;2023-03-16T10:46:17;-16448.50;;;10.03;100.00
3590;BME280;1809;48.470;9.226;2023-03-16T10:48:51;-16453.44;;;10.20;100.00
3590;BME280;1809;48.470;9.226;2023-03-16T10:51:18;-16457.09;;;10.34;100.00
3590;BME280;1809;48.470;9.226;2023-03-16T10:53:47;-16464.81;;;10.61;100.00
3590;BME280;1809;48.470;9.226;2023-03-16T10:56:21;-16465.94;;;10.65;100.00
3590;BME280;1809;48.470;9.226;2023-03-16T10:58:47;-16471.81;;;10.87;100.00
3590;BME280;1809;48.470;9.226;2023-03-16T11:01:24;-16467.34;;;10.70;100.00
3590;BME280;1809;48.470;9.226;2023-03-16T11:03:55;-16474.91;;;10.98;100.00
3590;BME280;1809;48.470;9.226;2023-03-16T11:06:25;-16473.50;;;10.93;100.00
3590;BME280;1809;48.470;9.226;2023-03-16T11:09:05;-16479.41;;;11.14;100.00
3590;BME280;1809;48.470;9.226;2023-03-16T11:11:34;-16470.97;;;10.84;100.00
3590;BME280;1809;48.470;9.226;2023-03-16T11:14:02;-16468.88;;;10.76;100.00
3590;BME280;1809;48.470;9.226;2023-03-16T11:16:41;-16466.34;;;10.67;100.00
3590;BME280;1809;48.470;9.226;2023-03-16T11:19:29;-16466.22;;;10.66;100.00
3590;BME280;1809;48.470;9.226;2023-03-16T11:27:41;-16486.28;;;11.39;100.00
3590;BME280;1809;48.470;9.226;2023-03-16T11:30:42;-16488.41;;;11.46;100.00
3590;BME280;1809;48.470;9.226;2023-03-16T11:33:12;-16487.28;;;11.42;100.00
3590;BME280;1809;48.470;9.226;2023-03-16T11:38:19;-16479.69;;;11.15;100.00
3590;BME280;1809;48.470;9.226;2023-03-16T11:41:04;-16475.34;;;10.99;100.00
3590;BME280;1809;48.470;9.226;2023-03-16T11:43:55;-16479.97;;;11.16;100.00
3590;BME280;1809;48.470;9.226;2023-03-16T11:46:40;-16487.41;;;11.43;100.00
3590;BME280;1809;48.470;9.226;2023-03-16T11:50:08;-16490.63;;;11.54;100.00
3590;BME280;1809;48.470;9.226;2023-03-16T12:00:51;-16486.72;;;11.40;100.00
3590;BME280;1809;48.470;9.226;2023-03-16T12:14:37;-16495.00;;;11.70;100.00
3590;BME280;1809;48.470;9.226;2023-03-16T12:17:08;-16496.53;;;11.75;100.00
3590;BME280;1809;48.470;9.226;2023-03-16T12:22:29;-16484.03;;;11.30;100.00
3590;BME280;1809;48.470;9.226;2023-03-16T12:24:57;-16480.53;;;11.18;100.00
3590;BME280;1809;48.470;9.226;2023-03-16T12:27:31;-16479.97;;;11.16;100.00
3590;BME280;1809;48.470;9.226;2023-03-16T12:32:59;-16480.25;;;11.17;97.64
3590;BME280;1809;48.470;9.226;2023-03-16T12:35:29;-16478.72;;;11.11;99.54
3590;BME280;1809;48.470;9.226;2023-03-16T12:44:31;-16488.97;;;11.48;92.38
3590;BME280;1809;48.470;9.226;2023-03-16T12:47:00;-16484.88;;;11.33;100.00
3590;BME280;1809;48.470;9.226;2023-03-16T12:49:32;-16491.91;;;11.59;96.70
3590;BME280;1809;48.470;9.226;2023-03-16T12:52:07;-16493.16;;;11.63;98.50
3590;BME280;1809;48.470;9.226;2023-03-16T12:55:11;-16503.41;;;12.00;98.33
3590;BME280;1809;48.470;9.226;2023-03-16T12:57:58;-16505.38;;;12.07;90.26
3590;BME280;1809;48.470;9.226;2023-03-16T13:00:37;-16511.41;;;12.29;87.73
3590;BME280;1809;48.470;9.226;2023-03-16T13:03:05;-16502.56;;;11.97;82.68
3590;BME280;1809;48.470;9.226;2023-03-16T13:05:36;-16508.06;;;12.17;87.10
3590;BME280;1809;48.470;9.226;2023-03-16T13:08:13;-16497.94;;;11.80;85.29
3590;BME280;1809;48.470;9.226;2023-03-16T13:10:40;-16490.34;;;11.53;91.98
3590;BME280;1809;48.470;9.226;2023-03-16T13:13:10;-16490.91;;;11.55;92.47
3590;BME280;1809;48.470;9.226;2023-03-16T13:15:37;-16491.19;;;11.56;92.40
3590;BME280;1809;48.470;9.226;2023-03-16T13:20:57;-16502.44;;;11.97;90.80
3590;BME280;1809;48.470;9.226;2023-03-16T13:23:45;-16509.16;;;12.21;84.78
3590;BME280;1809;48.470;9.226;2023-03-16T13:28:37;-16507.22;;;12.14;81.29
3590;BME280;1809;48.470;9.226;2023-03-16T13:31:05;-16511.28;;;12.28;80.91
3590;BME280;1809;48.470;9.226;2023-03-16T13:33:32;-16511.41;;;12.29;81.37
3590;BME280;1809;48.470;9.226;2023-03-16T13:36:02;-16515.06;;;12.42;84.73
3590;BME280;1809;48.470;9.226;2023-03-16T13:38:30;-16515.91;;;12.45;84.89
3590;BME280;1809;48.470;9.226;2023-03-16T13:41:10;-16515.06;;;12.42;86.04
3590;BME280;1809;48.470;9.226;2023-03-16T13:43:41;-16512.81;;;12.34;85.04
3590;BME280;1809;48.470;9.226;2023-03-16T13:46:16;-16514.38;;;12.39;85.32
3590;BME280;1809;48.470;9.226;2023-03-16T13:48:42;-16514.78;;;12.41;82.17
3590;BME280;1809;48.470;9.226;2023-03-16T13:51:13;-16522.91;;;12.70;85.82
3590;BME280;1809;48.470;9.226;2023-03-16T13:53:40;-16522.66;;;12.69;89.63
3590;BME280;1809;48.470;9.226;2023-03-16T13:56:12;-16526.84;;;12.84;89.64
3590;BME280;1809;48.470;9.226;2023-03-16T13:58:39;-16511.28;;;12.28;88.86
3590;BME280;1809;48.470;9.226;2023-03-16T14:01:16;-16509.75;;;12.23;91.76
3590;BME280;1809;48.470;9.226;2023-03-16T14:03:44;-16516.34;;;12.47;90.98
3590;BME280;1809;48.470;9.226;2023-03-16T14:06:25;-16520.41;;;12.61;91.53
3590;BME280;1809;48.470;9.226;2023-03-16T14:08:56;-16525.72;;;12.80;89.51
3590;BME280;1809;48.470;9.226;2023-03-16T14:11:22;-16529.38;;;12.93;87.95
3590;BME280;1809;48.470;9.226;2023-03-16T14:13:54;-16523.34;;;12.72;84.17
3590;BME280;1809;48.470;9.226;2023-03-16T14:16:25;-16523.75;;;12.73;84.77
3590;BME280;1809;48.470;9.226;2023-03-16T14:19:02;-16518.56;;;12.55;90.41
3590;BME280;1809;48.470;9.226;2023-03-16T14:21:29;-16515.91;;;12.45;92.94
3590;BME280;1809;48.470;9.226;2023-03-16T14:23:58;-16513.25;;;12.35;94.02
3590;BME280;1809;48.470;9.226;2023-03-16T14:26:24;-16519.00;;;12.56;100.00
3590;BME280;1809;48.470;9.226;2023-03-16T14:29:13;-16519.56;;;12.58;99.07
3590;BME280;1809;48.470;9.226;2023-03-16T14:31:41;-16522.91;;;12.70;97.85
3590;BME280;1809;48.470;9.226;2023-03-16T14:36:47;-16521.53;;;12.65;94.68